sensor_id;sensor_type;location;lat;lon;timestamp;P1;durP1;ratioP1;P2;durP2;ratioP2
4867;SDS011;2448;48.086;10.862;2023-09-07T00:00:20;6.37;;;2.80;;
4867;SDS011;2448;48.086;10.862;2023-09-07T00:02:46;2.70;;;2.50;;
4867;SDS011;2448;48.086;10.862;2023-09-07T00:05:11;3.23;;;2.53;;
4867;SDS011;2448;48.086;10.862;2023-09-07T00:07:38;3.40;;;3.10;;
4867;SDS011;2448;48.086;10.862;2023-09-07T00:10:03;4.60;;;2.83;;
4867;SDS011;2448;48.086;10.862;2023-09-07T00:12:29;2.57;;;2.40;;
4867;SDS011;2448;48.086;10.862;2023-09-07T00:14:55;2.63;;;2.43;;
4867;SDS011;2448;48.086;10.862;2023-09-07T00:17:21;6.83;;;2.37;;
4867;SDS011;2448;48.086;10.862;2023-09-07T00:19:46;2.47;;;2.27;;
4867;SDS011;2448;48.086;10.862;2023-09-07T00:22:16;2.87;;;2.67;;
4867;SDS011;2448;48.086;10.862;2023-09-07T00:24:41;4.00;;;3.53;;
4867;SDS011;2448;48.086;10.862;2023-09-07T00:27:06;4.80;;;3.13;;
4867;SDS011;2448;48.086;10.862;2023-09-07T00:29:34;3.03;;;2.70;;
4867;SDS011;2448;48.086;10.862;2023-09-07T00:31:59;5.87;;;2.80;;
4867;SDS011;2448;48.086;10.862;2023-09-07T00:34:25;2.90;;;2.70;;
4867;SDS011;2448;48.086;10.862;2023-09-07T00:36:50;2.77;;;2.57;;
4867;SDS011;2448;48.086;10.862;2023-09-07T00:39:15;6.70;;;3.43;;
4867;SDS011;2448;48.086;10.862;2023-09-07T00:41:41;3.10;;;2.80;;
4867;SDS011;2448;48.086;10.862;2023-09-07T00:44:06;9.03;;;3.83;;
4867;SDS011;2448;48.086;10.862;2023-09-07T00:46:32;4.07;;;3.47;;
4867;SDS011;2448;48.086;10.862;2023-09-07T00:48:57;3.90;;;3.37;;
4867;SDS011;2448;48.086;10.862;2023-09-07T00:51:22;3.37;;;2.50;;
4867;SDS011;2448;48.086;10.862;2023-09-07T00:53:48;5.07;;;3.10;;
4867;SDS011;2448;48.086;10.862;2023-09-07T00:56:14;3.87;;;3.17;;
4867;SDS011;2448;48.086;10.862;2023-09-07T00:58:39;2.80;;;2.53;;
4867;SDS011;2448;48.086;10.862;2023-09-07T01:01:06;3.70;;;2.50;;
4867;SDS011;2448;48.086;10.862;2023-09-07T01:03:32;5.50;;;3.40;;
4867;SDS011;2448;48.086;10.862;2023-09-07T01:08:26;2.90;;;2.70;;
4867;SDS011;2448;48.086;10.862;2023-09-07T01:10:54;2.40;;;2.23;;
4867;SDS011;2448;48.086;10.862;2023-09-07T01:13:20;2.37;;;2.27;;
4867;SDS011;2448;48.086;10.862;2023-09-07T01:15:46;5.10;;;3.10;;
4867;SDS011;2448;48.086;10.862;2023-09-07T01:18:11;2.40;;;2.20;;
4867;SDS011;2448;48.086;10.862;2023-09-07T01:20:37;3.37;;;2.90;;
4867;SDS011;2448;48.086;10.862;2023-09-07T01:23:04;8.53;;;3.50;;
4867;SDS011;2448;48.086;10.862;2023-09-07T01:25:29;2.70;;;2.60;;
4867;SDS011;2448;48.086;10.862;2023-09-07T01:27:56;3.73;;;2.60;;
4867;SDS011;2448;48.086;10.862;2023-09-07T01:30:22;2.93;;;2.60;;
4867;SDS011;2448;48.086;10.862;2023-09-07T01:32:47;2.53;;;2.30;;
4867;SDS011;2448;48.086;10.862;2023-09-07T01:35:14;4.27;;;3.10;;
4867;SDS011;2448;48.086;10.862;2023-09-07T01:37:42;5.10;;;2.90;;
4867;SDS011;2448;48.086;10.862;2023-09-07T01:40:07;3.27;;;2.83;;
4867;SDS011;2448;48.086;10.862;2023-09-07T01:42:33;2.90;;;2.20;;
4867;SDS011;2448;48.086;10.862;2023-09-07T01:44:59;1.90;;;1.80;;
4867;SDS011;2448;48.086;10.862;2023-09-07T01:47:24;2.67;;;2.47;;
4867;SDS011;2448;48.086;10.862;2023-09-07T01:49:49;4.70;;;2.80;;
4867;SDS011;2448;48.086;10.862;2023-09-07T01:52:15;2.60;;;2.40;;
4867;SDS011;2448;48.086;10.862;2023-09-07T01:54:40;4.20;;;2.50;;
4867;SDS011;2448;48.086;10.862;2023-09-07T01:57:06;4.77;;;3.30;;
4867;SDS011;2448;48.086;10.862;2023-09-07T01:59:31;5.00;;;3.60;;
4867;SDS011;2448;48.086;10.862;2023-09-07T02:01:56;3.90;;;3.20;;
4867;SDS011;2448;48.086;10.862;2023-09-07T02:04:22;4.10;;;3.20;;
4867;SDS011;2448;48.086;10.862;2023-09-07T02:06:47;4.57;;;3.37;;
4867;SDS011;2448;48.086;10.862;2023-09-07T02:09:13;3.17;;;2.80;;
4867;SDS011;2448;48.086;10.862;2023-09-07T02:11:38;3.47;;;2.10;;
4867;SDS011;2448;48.086;10.862;2023-09-07T02:14:05;2.43;;;2.30;;
4867;SDS011;2448;48.086;10.862;2023-09-07T02:16:30;2.63;;;2.43;;
4867;SDS011;2448;48.086;10.862;2023-09-07T02:19:03;3.00;;;2.20;;
4867;SDS011;2448;48.086;10.862;2023-09-07T02:21:28;2.90;;;2.53;;
4867;SDS011;2448;48.086;10.862;2023-09-07T02:23:54;2.90;;;2.53;;
4867;SDS011;2448;48.086;10.862;2023-09-07T02:26:19;11.33;;;2.80;;
4867;SDS011;2448;48.086;10.862;2023-09-07T02:28:45;2.93;;;2.40;;
4867;SDS011;2448;48.086;10.862;2023-09-07T02:31:10;8.57;;;2.93;;
4867;SDS011;2448;48.086;10.862;2023-09-07T02:33:36;14.43;;;3.30;;
4867;SDS011;2448;48.086;10.862;2023-09-07T02:36:02;2.77;;;2.57;;
4867;SDS011;2448;48.086;10.862;2023-09-07T02:38:28;3.10;;;2.80;;
4867;SDS011;2448;48.086;10.862;2023-09-07T02:40:54;3.37;;;2.63;;
4867;SDS011;2448;48.086;10.862;2023-09-07T02:43:20;2.60;;;2.40;;
4867;SDS011;2448;48.086;10.862;2023-09-07T02:45:46;2.97;;;2.77;;
4867;SDS011;2448;48.086;10.862;2023-09-07T02:48:13;2.27;;;2.07;;
4867;SDS011;2448;48.086;10.862;2023-09-07T02:50:39;4.10;;;2.67;;
4867;SDS011;2448;48.086;10.862;2023-09-07T02:53:05;3.80;;;2.30;;
4867;SDS011;2448;48.086;10.862;2023-09-07T02:55:31;2.60;;;2.40;;
4867;SDS011;2448;48.086;10.862;2023-09-07T02:57:57;7.67;;;3.37;;
4867;SDS011;2448;48.086;10.862;2023-09-07T03:00:23;2.83;;;2.60;;
4867;SDS011;2448;48.086;10.862;2023-09-07T03:02:49;2.60;;;2.40;;
4867;SDS011;2448;48.086;10.862;2023-09-07T03:05:15;2.53;;;2.33;;
4867;SDS011;2448;48.086;10.862;2023-09-07T03:07:41;3.60;;;2.77;;
4867;SDS011;2448;48.086;10.862;2023-09-07T03:10:06;4.20;;;2.90;;
4867;SDS011;2448;48.086;10.862;2023-09-07T03:12:31;6.13;;;3.30;;
4867;SDS011;2448;48.086;10.862;2023-09-07T03:14:57;4.93;;;3.10;;
4867;SDS011;2448;48.086;10.862;2023-09-07T03:17:22;3.30;;;2.67;;
4867;SDS011;2448;48.086;10.862;2023-09-07T03:19:48;6.67;;;2.90;;
4867;SDS011;2448;48.086;10.862;2023-09-07T03:22:14;3.73;;;3.20;;
4867;SDS011;2448;48.086;10.862;2023-09-07T03:24:39;3.03;;;2.73;;
4867;SDS011;2448;48.086;10.862;2023-09-07T03:27:05;5.60;;;3.90;;
4867;SDS011;2448;48.086;10.862;2023-09-07T03:29:31;7.47;;;3.03;;
4867;SDS011;2448;48.086;10.862;2023-09-07T03:31:58;4.10;;;3.33;;
4867;SDS011;2448;48.086;10.862;2023-09-07T03:34:24;2.80;;;2.27;;
4867;SDS011;2448;48.086;10.862;2023-09-07T03:36:49;4.70;;;3.27;;
4867;SDS011;2448;48.086;10.862;2023-09-07T03:39:15;4.37;;;3.10;;
4867;SDS011;2448;48.086;10.862;2023-09-07T03:41:40;4.37;;;3.03;;
4867;SDS011;2448;48.086;10.862;2023-09-07T03:44:06;3.77;;;3.47;;
4867;SDS011;2448;48.086;10.862;2023-09-07T03:46:31;3.27;;;2.70;;
4867;SDS011;2448;48.086;10.862;2023-09-07T03:48:57;3.37;;;3.07;;
4867;SDS011;2448;48.086;10.862;2023-09-07T03:51:22;3.23;;;2.93;;
4867;SDS011;2448;48.086;10.862;2023-09-07T03:53:48;5.80;;;2.53;;
4867;SDS011;2448;48.086;10.862;2023-09-07T03:56:14;3.57;;;3.03;;
4867;SDS011;2448;48.086;10.862;2023-09-07T03:58:40;2.57;;;2.37;;
4867;SDS011;2448;48.086;10.862;2023-09-07T04:01:06;4.13;;;3.67;;
4867;SDS011;2448;48.086;10.862;2023-09-07T04:03:31;16.13;;;4.50;;
4867;SDS011;2448;48.086;10.862;2023-09-07T04:05:57;3.37;;;2.80;;
4867;SDS011;2448;48.086;10.862;2023-09-07T04:08:22;4.30;;;3.00;;
4867;SDS011;2448;48.086;10.862;2023-09-07T04:10:47;5.47;;;3.30;;
4867;SDS011;2448;48.086;10.862;2023-09-07T04:13:13;3.73;;;3.43;;
4867;SDS011;2448;48.086;10.862;2023-09-07T04:15:43;3.53;;;2.50;;
4867;SDS011;2448;48.086;10.862;2023-09-07T04:18:09;36.47;;;3.70;;
4867;SDS011;2448;48.086;10.862;2023-09-07T04:20:37;3.30;;;2.80;;
4867;SDS011;2448;48.086;10.862;2023-09-07T04:23:03;2.97;;;2.70;;
4867;SDS011;2448;48.086;10.862;2023-09-07T04:25:28;11.77;;;3.23;;
4867;SDS011;2448;48.086;10.862;2023-09-07T04:27:54;4.00;;;2.90;;
4867;SDS011;2448;48.086;10.862;2023-09-07T04:30:19;4.60;;;3.10;;
4867;SDS011;2448;48.086;10.862;2023-09-07T04:32:44;3.40;;;3.10;;
4867;SDS011;2448;48.086;10.862;2023-09-07T04:35:10;2.80;;;2.60;;
4867;SDS011;2448;48.086;10.862;2023-09-07T04:37:36;4.93;;;3.17;;
4867;SDS011;2448;48.086;10.862;2023-09-07T04:40:01;3.13;;;2.70;;
4867;SDS011;2448;48.086;10.862;2023-09-07T04:42:28;3.20;;;2.90;;
4867;SDS011;2448;48.086;10.862;2023-09-07T04:44:53;2.80;;;2.60;;
4867;SDS011;2448;48.086;10.862;2023-09-07T04:47:18;3.77;;;3.10;;
4867;SDS011;2448;48.086;10.862;2023-09-07T04:49:48;2.30;;;2.10;;
4867;SDS011;2448;48.086;10.862;2023-09-07T04:52:14;5.50;;;3.10;;
4867;SDS011;2448;48.086;10.862;2023-09-07T04:54:39;4.80;;;2.77;;
4867;SDS011;2448;48.086;10.862;2023-09-07T04:57:04;4.73;;;2.60;;
4867;SDS011;2448;48.086;10.862;2023-09-07T04:59:30;5.00;;;2.70;;
4867;SDS011;2448;48.086;10.862;2023-09-07T05:01:58;8.53;;;3.50;;
4867;SDS011;2448;48.086;10.862;2023-09-07T05:04:23;5.97;;;2.57;;
4867;SDS011;2448;48.086;10.862;2023-09-07T05:06:49;2.93;;;2.67;;
4867;SDS011;2448;48.086;10.862;2023-09-07T05:09:15;4.70;;;2.73;;
4867;SDS011;2448;48.086;10.862;2023-09-07T05:11:40;10.37;;;3.07;;
4867;SDS011;2448;48.086;10.862;2023-09-07T05:14:07;3.10;;;2.80;;
4867;SDS011;2448;48.086;10.862;2023-09-07T05:16:32;5.40;;;3.30;;
4867;SDS011;2448;48.086;10.862;2023-09-07T05:18:58;7.33;;;3.13;;
4867;SDS011;2448;48.086;10.862;2023-09-07T05:21:23;3.37;;;3.00;;
4867;SDS011;2448;48.086;10.862;2023-09-07T05:23:50;5.27;;;3.40;;
4867;SDS011;2448;48.086;10.862;2023-09-07T05:26:20;4.00;;;2.53;;
4867;SDS011;2448;48.086;10.862;2023-09-07T05:28:46;3.00;;;2.47;;
4867;SDS011;2448;48.086;10.862;2023-09-07T05:31:12;3.50;;;2.80;;
4867;SDS011;2448;48.086;10.862;2023-09-07T05:33:38;3.17;;;2.87;;
4867;SDS011;2448;48.086;10.862;2023-09-07T05:36:03;3.00;;;2.77;;
4867;SDS011;2448;48.086;10.862;2023-09-07T05:38:29;3.00;;;2.50;;
4867;SDS011;2448;48.086;10.862;2023-09-07T05:40:54;2.90;;;2.70;;
4867;SDS011;2448;48.086;10.862;2023-09-07T05:43:21;3.27;;;2.97;;
4867;SDS011;2448;48.086;10.862;2023-09-07T05:45:47;2.83;;;2.60;;
4867;SDS011;2448;48.086;10.862;2023-09-07T05:48:13;3.63;;;3.20;;
4867;SDS011;2448;48.086;10.862;2023-09-07T05:50:38;3.43;;;2.90;;
4867;SDS011;2448;48.086;10.862;2023-09-07T05:53:04;3.70;;;3.13;;
4867;SDS011;2448;48.086;10.862;2023-09-07T05:55:31;7.10;;;3.33;;
4867;SDS011;2448;48.086;10.862;2023-09-07T05:57:57;5.60;;;2.87;;
4867;SDS011;2448;48.086;10.862;2023-09-07T06:00:23;5.13;;;3.33;;
4867;SDS011;2448;48.086;10.862;2023-09-07T06:02:49;5.20;;;3.67;;
4867;SDS011;2448;48.086;10.862;2023-09-07T06:05:15;4.83;;;3.23;;
4867;SDS011;2448;48.086;10.862;2023-09-07T06:07:41;3.40;;;2.80;;
4867;SDS011;2448;48.086;10.862;2023-09-07T06:10:07;3.53;;;2.93;;
4867;SDS011;2448;48.086;10.862;2023-09-07T06:12:33;3.33;;;2.97;;
4867;SDS011;2448;48.086;10.862;2023-09-07T06:15:00;4.07;;;3.67;;
4867;SDS011;2448;48.086;10.862;2023-09-07T06:17:27;3.90;;;3.47;;
4867;SDS011;2448;48.086;10.862;2023-09-07T06:19:53;4.30;;;3.20;;
4867;SDS011;2448;48.086;10.862;2023-09-07T06:22:18;5.37;;;3.40;;
4867;SDS011;2448;48.086;10.862;2023-09-07T06:24:44;6.00;;;3.93;;
4867;SDS011;2448;48.086;10.862;2023-09-07T06:27:09;4.67;;;3.60;;
4867;SDS011;2448;48.086;10.862;2023-09-07T06:29:35;5.37;;;3.83;;
4867;SDS011;2448;48.086;10.862;2023-09-07T06:32:00;4.83;;;3.33;;
4867;SDS011;2448;48.086;10.862;2023-09-07T06:34:26;7.37;;;3.93;;
4867;SDS011;2448;48.086;10.862;2023-09-07T06:36:51;5.70;;;3.87;;
4867;SDS011;2448;48.086;10.862;2023-09-07T06:39:19;6.27;;;3.60;;
4867;SDS011;2448;48.086;10.862;2023-09-07T06:41:45;5.33;;;4.20;;
4867;SDS011;2448;48.086;10.862;2023-09-07T06:44:11;5.97;;;4.00;;
4867;SDS011;2448;48.086;10.862;2023-09-07T06:46:37;5.63;;;4.33;;
4867;SDS011;2448;48.086;10.862;2023-09-07T06:49:02;7.80;;;4.30;;
4867;SDS011;2448;48.086;10.862;2023-09-07T06:51:30;7.47;;;5.47;;
4867;SDS011;2448;48.086;10.862;2023-09-07T06:53:55;8.60;;;4.60;;
4867;SDS011;2448;48.086;10.862;2023-09-07T06:56:21;8.57;;;4.40;;
4867;SDS011;2448;48.086;10.862;2023-09-07T06:58:47;5.47;;;4.07;;
4867;SDS011;2448;48.086;10.862;2023-09-07T07:01:13;7.90;;;4.60;;
4867;SDS011;2448;48.086;10.862;2023-09-07T07:03:38;5.97;;;4.53;;
4867;SDS011;2448;48.086;10.862;2023-09-07T07:06:04;6.77;;;4.60;;
4867;SDS011;2448;48.086;10.862;2023-09-07T07:08:29;6.20;;;4.53;;
4867;SDS011;2448;48.086;10.862;2023-09-07T07:10:55;4.90;;;3.97;;
4867;SDS011;2448;48.086;10.862;2023-09-07T07:13:20;6.00;;;4.30;;
4867;SDS011;2448;48.086;10.862;2023-09-07T07:15:46;4.87;;;3.90;;
4867;SDS011;2448;48.086;10.862;2023-09-07T07:18:11;6.00;;;4.47;;
4867;SDS011;2448;48.086;10.862;2023-09-07T07:20:38;4.60;;;3.97;;
4867;SDS011;2448;48.086;10.862;2023-09-07T07:23:04;12.23;;;4.37;;
4867;SDS011;2448;48.086;10.862;2023-09-07T07:25:29;4.33;;;3.93;;
4867;SDS011;2448;48.086;10.862;2023-09-07T07:27:59;4.37;;;3.97;;
4867;SDS011;2448;48.086;10.862;2023-09-07T07:30:28;4.90;;;4.40;;
4867;SDS011;2448;48.086;10.862;2023-09-07T07:32:55;10.33;;;5.03;;
4867;SDS011;2448;48.086;10.862;2023-09-07T07:35:21;6.67;;;5.13;;
4867;SDS011;2448;48.086;10.862;2023-09-07T07:37:47;5.23;;;4.50;;
4867;SDS011;2448;48.086;10.862;2023-09-07T07:40:14;6.37;;;4.97;;
4867;SDS011;2448;48.086;10.862;2023-09-07T07:42:39;5.60;;;4.70;;
4867;SDS011;2448;48.086;10.862;2023-09-07T07:45:06;11.40;;;4.67;;
4867;SDS011;2448;48.086;10.862;2023-09-07T07:47:32;5.10;;;4.40;;
4867;SDS011;2448;48.086;10.862;2023-09-07T07:49:58;4.60;;;4.20;;
4867;SDS011;2448;48.086;10.862;2023-09-07T07:52:23;8.70;;;4.40;;
4867;SDS011;2448;48.086;10.862;2023-09-07T07:54:49;5.33;;;4.23;;
4867;SDS011;2448;48.086;10.862;2023-09-07T07:57:15;7.20;;;5.33;;
4867;SDS011;2448;48.086;10.862;2023-09-07T07:59:40;6.93;;;4.17;;
4867;SDS011;2448;48.086;10.862;2023-09-07T08:02:06;5.87;;;4.73;;
4867;SDS011;2448;48.086;10.862;2023-09-07T08:04:32;9.03;;;4.97;;
4867;SDS011;2448;48.086;10.862;2023-09-07T08:06:58;7.43;;;4.90;;
4867;SDS011;2448;48.086;10.862;2023-09-07T08:09:30;6.33;;;4.67;;
4867;SDS011;2448;48.086;10.862;2023-09-07T08:11:56;4.50;;;4.10;;
4867;SDS011;2448;48.086;10.862;2023-09-07T08:14:23;6.20;;;4.87;;
4867;SDS011;2448;48.086;10.862;2023-09-07T08:16:49;6.50;;;4.60;;
4867;SDS011;2448;48.086;10.862;2023-09-07T08:19:14;4.17;;;3.77;;
4867;SDS011;2448;48.086;10.862;2023-09-07T08:21:40;6.83;;;4.63;;
4867;SDS011;2448;48.086;10.862;2023-09-07T08:24:08;6.37;;;4.17;;
4867;SDS011;2448;48.086;10.862;2023-09-07T08:26:34;5.30;;;4.30;;
4867;SDS011;2448;48.086;10.862;2023-09-07T08:29:00;4.37;;;3.70;;
4867;SDS011;2448;48.086;10.862;2023-09-07T08:31:30;4.03;;;3.63;;
4867;SDS011;2448;48.086;10.862;2023-09-07T08:33:56;4.40;;;4.00;;
4867;SDS011;2448;48.086;10.862;2023-09-07T08:36:21;4.60;;;4.20;;
4867;SDS011;2448;48.086;10.862;2023-09-07T08:38:50;10.57;;;3.83;;
4867;SDS011;2448;48.086;10.862;2023-09-07T08:41:15;3.67;;;3.40;;
4867;SDS011;2448;48.086;10.862;2023-09-07T08:43:49;4.03;;;3.63;;
4867;SDS011;2448;48.086;10.862;2023-09-07T08:46:18;4.17;;;3.87;;
4867;SDS011;2448;48.086;10.862;2023-09-07T08:48:45;4.33;;;3.93;;
4867;SDS011;2448;48.086;10.862;2023-09-07T08:51:12;4.53;;;4.13;;
4867;SDS011;2448;48.086;10.862;2023-09-07T08:53:39;5.50;;;4.00;;
4867;SDS011;2448;48.086;10.862;2023-09-07T08:56:04;4.00;;;3.70;;
4867;SDS011;2448;48.086;10.862;2023-09-07T08:58:31;6.07;;;4.37;;
4867;SDS011;2448;48.086;10.862;2023-09-07T09:00:57;4.00;;;3.60;;
4867;SDS011;2448;48.086;10.862;2023-09-07T09:03:23;4.10;;;3.70;;
4867;SDS011;2448;48.086;10.862;2023-09-07T09:05:48;5.53;;;2.90;;
4867;SDS011;2448;48.086;10.862;2023-09-07T09:08:15;5.67;;;4.13;;
4867;SDS011;2448;48.086;10.862;2023-09-07T09:10:45;4.07;;;3.73;;
4867;SDS011;2448;48.086;10.862;2023-09-07T09:13:11;5.80;;;3.67;;
4867;SDS011;2448;48.086;10.862;2023-09-07T09:15:37;7.57;;;3.83;;
4867;SDS011;2448;48.086;10.862;2023-09-07T09:18:09;4.30;;;3.90;;
4867;SDS011;2448;48.086;10.862;2023-09-07T09:20:37;3.70;;;3.40;;
4867;SDS011;2448;48.086;10.862;2023-09-07T09:23:03;7.83;;;3.40;;
4867;SDS011;2448;48.086;10.862;2023-09-07T09:25:30;4.27;;;3.87;;
4867;SDS011;2448;48.086;10.862;2023-09-07T09:27:56;4.77;;;4.20;;
4867;SDS011;2448;48.086;10.862;2023-09-07T09:30:21;3.87;;;3.23;;
4867;SDS011;2448;48.086;10.862;2023-09-07T09:32:47;5.53;;;3.77;;
4867;SDS011;2448;48.086;10.862;2023-09-07T09:35:13;3.80;;;3.50;;
4867;SDS011;2448;48.086;10.862;2023-09-07T09:37:44;10.07;;;3.67;;
4867;SDS011;2448;48.086;10.862;2023-09-07T09:40:11;5.70;;;3.50;;
4867;SDS011;2448;48.086;10.862;2023-09-07T09:42:36;3.00;;;2.77;;
4867;SDS011;2448;48.086;10.862;2023-09-07T09:45:03;3.73;;;3.37;;
4867;SDS011;2448;48.086;10.862;2023-09-07T09:47:31;3.70;;;3.23;;
4867;SDS011;2448;48.086;10.862;2023-09-07T09:49:58;3.33;;;3.13;;
4867;SDS011;2448;48.086;10.862;2023-09-07T09:52:25;4.93;;;3.20;;
4867;SDS011;2448;48.086;10.862;2023-09-07T09:54:51;3.30;;;3.00;;
4867;SDS011;2448;48.086;10.862;2023-09-07T09:57:17;4.83;;;3.93;;
4867;SDS011;2448;48.086;10.862;2023-09-07T09:59:42;3.53;;;3.33;;
4867;SDS011;2448;48.086;10.862;2023-09-07T10:02:09;3.40;;;3.10;;
4867;SDS011;2448;48.086;10.862;2023-09-07T10:04:35;4.43;;;4.03;;
4867;SDS011;2448;48.086;10.862;2023-09-07T10:07:01;4.20;;;3.63;;
4867;SDS011;2448;48.086;10.862;2023-09-07T10:09:33;9.47;;;3.67;;
4867;SDS011;2448;48.086;10.862;2023-09-07T10:11:59;4.07;;;3.40;;
4867;SDS011;2448;48.086;10.862;2023-09-07T10:14:25;4.63;;;3.37;;
4867;SDS011;2448;48.086;10.862;2023-09-07T10:16:53;4.43;;;3.80;;
4867;SDS011;2448;48.086;10.862;2023-09-07T10:19:21;3.90;;;3.60;;
4867;SDS011;2448;48.086;10.862;2023-09-07T10:21:47;6.10;;;3.97;;
4867;SDS011;2448;48.086;10.862;2023-09-07T10:24:33;4.23;;;3.33;;
4867;SDS011;2448;48.086;10.862;2023-09-07T10:27:04;3.50;;;3.20;;
4867;SDS011;2448;48.086;10.862;2023-09-07T10:29:51;3.97;;;3.30;;
4867;SDS011;2448;48.086;10.862;2023-09-07T10:32:17;4.97;;;4.00;;
4867;SDS011;2448;48.086;10.862;2023-09-07T10:34:43;7.37;;;4.00;;
4867;SDS011;2448;48.086;10.862;2023-09-07T10:37:09;3.80;;;3.40;;
4867;SDS011;2448;48.086;10.862;2023-09-07T10:39:37;4.17;;;3.77;;
4867;SDS011;2448;48.086;10.862;2023-09-07T10:42:04;3.10;;;2.90;;
4867;SDS011;2448;48.086;10.862;2023-09-07T10:44:29;4.93;;;3.63;;
4867;SDS011;2448;48.086;10.862;2023-09-07T10:46:55;6.30;;;4.20;;
4867;SDS011;2448;48.086;10.862;2023-09-07T10:49:21;3.83;;;3.53;;
4867;SDS011;2448;48.086;10.862;2023-09-07T10:51:47;3.37;;;3.13;;
4867;SDS011;2448;48.086;10.862;2023-09-07T10:54:17;3.87;;;3.47;;
4867;SDS011;2448;48.086;10.862;2023-09-07T10:56:43;4.80;;;3.77;;
4867;SDS011;2448;48.086;10.862;2023-09-07T10:59:09;3.40;;;3.00;;
4867;SDS011;2448;48.086;10.862;2023-09-07T11:01:34;9.67;;;3.87;;
4867;SDS011;2448;48.086;10.862;2023-09-07T11:03:59;5.10;;;3.40;;
4867;SDS011;2448;48.086;10.862;2023-09-07T11:06:25;3.50;;;3.20;;
4867;SDS011;2448;48.086;10.862;2023-09-07T11:08:51;4.00;;;3.60;;
4867;SDS011;2448;48.086;10.862;2023-09-07T11:11:16;4.63;;;3.67;;
4867;SDS011;2448;48.086;10.862;2023-09-07T11:13:42;4.77;;;3.70;;
4867;SDS011;2448;48.086;10.862;2023-09-07T11:16:08;4.37;;;3.97;;
4867;SDS011;2448;48.086;10.862;2023-09-07T11:18:34;3.77;;;3.40;;
4867;SDS011;2448;48.086;10.862;2023-09-07T11:21:01;8.10;;;3.70;;
4867;SDS011;2448;48.086;10.862;2023-09-07T11:23:29;3.90;;;3.50;;
4867;SDS011;2448;48.086;10.862;2023-09-07T11:25:54;5.23;;;3.77;;
4867;SDS011;2448;48.086;10.862;2023-09-07T11:28:20;4.03;;;3.67;;
4867;SDS011;2448;48.086;10.862;2023-09-07T11:30:51;5.60;;;4.27;;
4867;SDS011;2448;48.086;10.862;2023-09-07T11:33:17;4.90;;;3.80;;
4867;SDS011;2448;48.086;10.862;2023-09-07T11:35:43;4.00;;;3.60;;
4867;SDS011;2448;48.086;10.862;2023-09-07T11:38:08;3.57;;;3.37;;
4867;SDS011;2448;48.086;10.862;2023-09-07T11:40:37;4.80;;;3.57;;
4867;SDS011;2448;48.086;10.862;2023-09-07T11:43:02;5.83;;;4.43;;
4867;SDS011;2448;48.086;10.862;2023-09-07T11:45:28;5.50;;;3.80;;
4867;SDS011;2448;48.086;10.862;2023-09-07T11:47:53;4.00;;;3.50;;
4867;SDS011;2448;48.086;10.862;2023-09-07T11:50:18;6.63;;;4.30;;
4867;SDS011;2448;48.086;10.862;2023-09-07T11:52:44;4.40;;;3.90;;
4867;SDS011;2448;48.086;10.862;2023-09-07T11:55:09;6.40;;;3.80;;
4867;SDS011;2448;48.086;10.862;2023-09-07T11:57:36;5.30;;;3.70;;
4867;SDS011;2448;48.086;10.862;2023-09-07T12:00:01;4.20;;;3.80;;
4867;SDS011;2448;48.086;10.862;2023-09-07T12:02:39;5.40;;;4.30;;
4867;SDS011;2448;48.086;10.862;2023-09-07T12:05:05;4.60;;;4.20;;
4867;SDS011;2448;48.086;10.862;2023-09-07T12:07:33;7.50;;;4.37;;
4867;SDS011;2448;48.086;10.862;2023-09-07T12:09:58;4.20;;;3.60;;
4867;SDS011;2448;48.086;10.862;2023-09-07T12:12:24;4.63;;;3.77;;
4867;SDS011;2448;48.086;10.862;2023-09-07T12:14:49;4.73;;;3.93;;
4867;SDS011;2448;48.086;10.862;2023-09-07T12:17:15;5.30;;;4.30;;
4867;SDS011;2448;48.086;10.862;2023-09-07T12:19:40;7.77;;;5.13;;
4867;SDS011;2448;48.086;10.862;2023-09-07T12:22:11;4.93;;;4.17;;
4867;SDS011;2448;48.086;10.862;2023-09-07T12:24:36;4.13;;;3.53;;
4867;SDS011;2448;48.086;10.862;2023-09-07T12:27:02;7.20;;;3.50;;
4867;SDS011;2448;48.086;10.862;2023-09-07T12:29:27;5.60;;;4.20;;
4867;SDS011;2448;48.086;10.862;2023-09-07T12:31:52;10.37;;;4.87;;
4867;SDS011;2448;48.086;10.862;2023-09-07T12:34:18;5.50;;;4.27;;
4867;SDS011;2448;48.086;10.862;2023-09-07T12:36:43;5.13;;;3.97;;
4867;SDS011;2448;48.086;10.862;2023-09-07T12:39:08;5.83;;;4.10;;
4867;SDS011;2448;48.086;10.862;2023-09-07T12:41:37;4.33;;;3.93;;
4867;SDS011;2448;48.086;10.862;2023-09-07T12:44:03;6.57;;;4.83;;
4867;SDS011;2448;48.086;10.862;2023-09-07T12:46:28;7.70;;;4.37;;
4867;SDS011;2448;48.086;10.862;2023-09-07T12:48:54;6.80;;;3.90;;
4867;SDS011;2448;48.086;10.862;2023-09-07T12:51:19;7.00;;;4.10;;
4867;SDS011;2448;48.086;10.862;2023-09-07T12:53:44;5.50;;;4.23;;
4867;SDS011;2448;48.086;10.862;2023-09-07T12:56:10;5.73;;;4.20;;
4867;SDS011;2448;48.086;10.862;2023-09-07T12:58:35;4.10;;;3.70;;
4867;SDS011;2448;48.086;10.862;2023-09-07T13:01:01;4.20;;;3.80;;
4867;SDS011;2448;48.086;10.862;2023-09-07T13:03:26;6.13;;;4.20;;
4867;SDS011;2448;48.086;10.862;2023-09-07T13:05:51;4.20;;;3.80;;
4867;SDS011;2448;48.086;10.862;2023-09-07T13:08:17;5.90;;;4.33;;
4867;SDS011;2448;48.086;10.862;2023-09-07T13:10:42;3.67;;;3.43;;
4867;SDS011;2448;48.086;10.862;2023-09-07T13:13:08;7.30;;;3.70;;
4867;SDS011;2448;48.086;10.862;2023-09-07T13:15:33;6.30;;;3.60;;
4867;SDS011;2448;48.086;10.862;2023-09-07T13:17:59;5.00;;;3.63;;
4867;SDS011;2448;48.086;10.862;2023-09-07T13:20:24;3.77;;;3.37;;
4867;SDS011;2448;48.086;10.862;2023-09-07T13:22:50;4.20;;;3.80;;
4867;SDS011;2448;48.086;10.862;2023-09-07T13:25:15;5.10;;;3.43;;
4867;SDS011;2448;48.086;10.862;2023-09-07T13:27:40;3.50;;;3.20;;
4867;SDS011;2448;48.086;10.862;2023-09-07T13:30:06;3.87;;;3.50;;
4867;SDS011;2448;48.086;10.862;2023-09-07T13:32:33;9.03;;;4.00;;
4867;SDS011;2448;48.086;10.862;2023-09-07T13:34:59;4.73;;;3.87;;
4867;SDS011;2448;48.086;10.862;2023-09-07T13:37:24;4.10;;;3.37;;
4867;SDS011;2448;48.086;10.862;2023-09-07T13:39:49;4.10;;;3.40;;
4867;SDS011;2448;48.086;10.862;2023-09-07T13:42:15;3.33;;;3.13;;
4867;SDS011;2448;48.086;10.862;2023-09-07T13:44:40;3.20;;;2.90;;
4867;SDS011;2448;48.086;10.862;2023-09-07T13:47:06;3.87;;;3.57;;
4867;SDS011;2448;48.086;10.862;2023-09-07T13:49:33;3.40;;;3.10;;
4867;SDS011;2448;48.086;10.862;2023-09-07T13:51:59;10.23;;;3.63;;
4867;SDS011;2448;48.086;10.862;2023-09-07T13:54:24;3.30;;;3.03;;
4867;SDS011;2448;48.086;10.862;2023-09-07T13:56:49;8.40;;;4.00;;
4867;SDS011;2448;48.086;10.862;2023-09-07T13:59:15;4.80;;;3.37;;
4867;SDS011;2448;48.086;10.862;2023-09-07T14:01:40;5.30;;;3.50;;
4867;SDS011;2448;48.086;10.862;2023-09-07T14:04:06;3.30;;;3.10;;
4867;SDS011;2448;48.086;10.862;2023-09-07T14:06:31;3.37;;;3.00;;
4867;SDS011;2448;48.086;10.862;2023-09-07T14:08:57;8.60;;;3.50;;
4867;SDS011;2448;48.086;10.862;2023-09-07T14:11:22;3.37;;;2.97;;
4867;SDS011;2448;48.086;10.862;2023-09-07T14:13:48;3.93;;;3.10;;
4867;SDS011;2448;48.086;10.862;2023-09-07T14:16:17;3.13;;;2.90;;
4867;SDS011;2448;48.086;10.862;2023-09-07T14:18:43;3.70;;;3.33;;
4867;SDS011;2448;48.086;10.862;2023-09-07T14:21:09;3.70;;;3.40;;
4867;SDS011;2448;48.086;10.862;2023-09-07T14:23:34;2.53;;;2.43;;
4867;SDS011;2448;48.086;10.862;2023-09-07T14:26:00;3.50;;;3.20;;
4867;SDS011;2448;48.086;10.862;2023-09-07T14:28:25;3.33;;;2.60;;
4867;SDS011;2448;48.086;10.862;2023-09-07T14:30:51;2.97;;;2.57;;
4867;SDS011;2448;48.086;10.862;2023-09-07T14:33:19;2.87;;;2.67;;
4867;SDS011;2448;48.086;10.862;2023-09-07T14:35:44;3.17;;;2.90;;
4867;SDS011;2448;48.086;10.862;2023-09-07T14:38:10;2.90;;;2.70;;
4867;SDS011;2448;48.086;10.862;2023-09-07T14:40:35;10.77;;;3.03;;
4867;SDS011;2448;48.086;10.862;2023-09-07T14:43:00;2.93;;;2.63;;
4867;SDS011;2448;48.086;10.862;2023-09-07T14:45:26;3.07;;;2.77;;
4867;SDS011;2448;48.086;10.862;2023-09-07T14:47:52;3.73;;;2.50;;
4867;SDS011;2448;48.086;10.862;2023-09-07T14:50:17;2.93;;;2.60;;
4867;SDS011;2448;48.086;10.862;2023-09-07T14:52:43;4.93;;;2.70;;
4867;SDS011;2448;48.086;10.862;2023-09-07T14:55:12;3.00;;;2.80;;